sensor_id;sensor_type;location;lat;lon;timestamp;P1;durP1;ratioP1;P2;durP2;ratioP2
9304;SDS011;4690;52.422;13.486;2023-02-01T00:05:41;26.50;;;5.43;;
9304;SDS011;4690;52.422;13.486;2023-02-01T00:08:08;26.93;;;5.07;;
9304;SDS011;4690;52.422;13.486;2023-02-01T00:10:34;33.27;;;5.63;;
9304;SDS011;4690;52.422;13.486;2023-02-01T00:12:59;23.83;;;5.13;;
9304;SDS011;4690;52.422;13.486;2023-02-01T00:15:25;35.60;;;6.40;;
9304;SDS011;4690;52.422;13.486;2023-02-01T00:17:54;22.47;;;5.33;;
9304;SDS011;4690;52.422;13.486;2023-02-01T00:20:20;31.70;;;5.87;;
9304;SDS011;4690;52.422;13.486;2023-02-01T00:22:46;28.73;;;5.00;;
9304;SDS011;4690;52.422;13.486;2023-02-01T00:25:11;29.27;;;5.43;;
9304;SDS011;4690;52.422;13.486;2023-02-01T00:27:37;25.67;;;5.53;;
9304;SDS011;4690;52.422;13.486;2023-02-01T00:30:03;25.73;;;4.83;;
9304;SDS011;4690;52.422;13.486;2023-02-01T00:32:29;23.13;;;4.93;;
9304;SDS011;4690;52.422;13.486;2023-02-01T00:34:56;26.13;;;4.60;;
9304;SDS011;4690;52.422;13.486;2023-02-01T00:37:22;30.13;;;5.00;;
9304;SDS011;4690;52.422;13.486;2023-02-01T00:39:48;24.53;;;5.40;;
9304;SDS011;4690;52.422;13.486;2023-02-01T00:42:15;21.40;;;5.23;;
9304;SDS011;4690;52.422;13.486;2023-02-01T00:44:40;24.00;;;5.17;;
9304;SDS011;4690;52.422;13.486;2023-02-01T00:47:06;24.43;;;5.70;;
9304;SDS011;4690;52.422;13.486;2023-02-01T00:49:32;22.67;;;5.23;;
9304;SDS011;4690;52.422;13.486;2023-02-01T00:51:58;23.50;;;4.90;;
9304;SDS011;4690;52.422;13.486;2023-02-01T00:54:23;20.10;;;4.53;;
9304;SDS011;4690;52.422;13.486;2023-02-01T00:56:49;29.43;;;4.97;;
9304;SDS011;4690;52.422;13.486;2023-02-01T00:59:15;23.33;;;5.00;;
9304;SDS011;4690;52.422;13.486;2023-02-01T01:01:41;20.17;;;3.87;;
9304;SDS011;4690;52.422;13.486;2023-02-01T01:04:07;20.13;;;4.70;;
9304;SDS011;4690;52.422;13.486;2023-02-01T01:06:33;19.17;;;4.40;;
9304;SDS011;4690;52.422;13.486;2023-02-01T01:09:00;19.17;;;4.67;;
9304;SDS011;4690;52.422;13.486;2023-02-01T01:11:30;19.27;;;4.43;;
9304;SDS011;4690;52.422;13.486;2023-02-01T01:13:58;17.30;;;4.33;;
9304;SDS011;4690;52.422;13.486;2023-02-01T01:16:26;18.13;;;4.03;;
9304;SDS011;4690;52.422;13.486;2023-02-01T01:18:55;17.80;;;4.27;;
9304;SDS011;4690;52.422;13.486;2023-02-01T01:21:21;20.27;;;4.47;;
9304;SDS011;4690;52.422;13.486;2023-02-01T01:23:48;17.80;;;4.10;;
9304;SDS011;4690;52.422;13.486;2023-02-01T01:26:15;15.20;;;4.20;;
9304;SDS011;4690;52.422;13.486;2023-02-01T01:28:47;16.83;;;4.40;;
9304;SDS011;4690;52.422;13.486;2023-02-01T01:31:14;14.63;;;4.17;;
9304;SDS011;4690;52.422;13.486;2023-02-01T01:33:42;19.97;;;4.33;;
9304;SDS011;4690;52.422;13.486;2023-02-01T01:36:09;21.97;;;4.70;;
9304;SDS011;4690;52.422;13.486;2023-02-01T01:38:36;15.10;;;4.13;;
9304;SDS011;4690;52.422;13.486;2023-02-01T01:41:09;14.83;;;3.83;;
9304;SDS011;4690;52.422;13.486;2023-02-01T01:43:54;19.57;;;4.30;;
9304;SDS011;4690;52.422;13.486;2023-02-01T01:46:24;17.50;;;5.27;;
9304;SDS011;4690;52.422;13.486;2023-02-01T01:49:03;14.87;;;4.27;;
9304;SDS011;4690;52.422;13.486;2023-02-01T01:51:47;17.63;;;4.43;;
9304;SDS011;4690;52.422;13.486;2023-02-01T01:54:21;16.50;;;3.90;;
9304;SDS011;4690;52.422;13.486;2023-02-01T01:56:57;18.30;;;4.67;;
9304;SDS011;4690;52.422;13.486;2023-02-01T01:59:29;14.27;;;4.23;;
9304;SDS011;4690;52.422;13.486;2023-02-01T02:02:00;15.23;;;4.20;;
9304;SDS011;4690;52.422;13.486;2023-02-01T02:04:26;15.93;;;4.47;;
9304;SDS011;4690;52.422;13.486;2023-02-01T02:06:58;14.30;;;4.43;;
9304;SDS011;4690;52.422;13.486;2023-02-01T02:09:29;12.83;;;4.23;;
9304;SDS011;4690;52.422;13.486;2023-02-01T02:11:55;13.33;;;4.03;;
9304;SDS011;4690;52.422;13.486;2023-02-01T02:14:21;21.40;;;4.73;;
9304;SDS011;4690;52.422;13.486;2023-02-01T02:17:07;17.73;;;4.80;;
9304;SDS011;4690;52.422;13.486;2023-02-01T02:45:20;17.53;;;4.73;;
9304;SDS011;4690;52.422;13.486;2023-02-01T02:48:26;16.13;;;4.07;;
9304;SDS011;4690;52.422;13.486;2023-02-01T02:51:05;17.70;;;4.67;;
9304;SDS011;4690;52.422;13.486;2023-02-01T02:54:18;15.00;;;3.90;;
9304;SDS011;4690;52.422;13.486;2023-02-01T02:57:22;17.60;;;4.60;;
9304;SDS011;4690;52.422;13.486;2023-02-01T03:00:22;19.60;;;3.77;;
9304;SDS011;4690;52.422;13.486;2023-02-01T03:03:12;20.93;;;4.87;;
9304;SDS011;4690;52.422;13.486;2023-02-01T03:05:57;16.03;;;4.53;;
9304;SDS011;4690;52.422;13.486;2023-02-01T03:08:26;14.63;;;4.43;;
9304;SDS011;4690;52.422;13.486;2023-02-01T03:16:24;20.03;;;4.63;;
9304;SDS011;4690;52.422;13.486;2023-02-01T03:21:32;20.80;;;5.00;;
9304;SDS011;4690;52.422;13.486;2023-02-01T03:24:09;15.80;;;4.20;;
9304;SDS011;4690;52.422;13.486;2023-02-01T03:27:07;19.53;;;4.77;;
9304;SDS011;4690;52.422;13.486;2023-02-01T03:29:48;22.47;;;4.63;;
9304;SDS011;4690;52.422;13.486;2023-02-01T03:32:33;15.97;;;4.77;;
9304;SDS011;4690;52.422;13.486;2023-02-01T03:35:23;22.20;;;4.83;;
9304;SDS011;4690;52.422;13.486;2023-02-01T03:37:54;14.67;;;4.27;;
9304;SDS011;4690;52.422;13.486;2023-02-01T03:40:34;19.37;;;4.53;;
9304;SDS011;4690;52.422;13.486;2023-02-01T03:43:02;15.87;;;4.30;;
9304;SDS011;4690;52.422;13.486;2023-02-01T03:45:39;17.37;;;4.27;;
9304;SDS011;4690;52.422;13.486;2023-02-01T03:48:12;16.13;;;4.30;;
9304;SDS011;4690;52.422;13.486;2023-02-01T03:50:43;19.33;;;4.60;;
9304;SDS011;4690;52.422;13.486;2023-02-01T03:53:16;21.67;;;4.77;;
9304;SDS011;4690;52.422;13.486;2023-02-01T03:55:48;21.87;;;4.73;;
9304;SDS011;4690;52.422;13.486;2023-02-01T03:58:18;18.37;;;4.33;;
9304;SDS011;4690;52.422;13.486;2023-02-01T04:00:51;18.83;;;4.90;;
9304;SDS011;4690;52.422;13.486;2023-02-01T04:03:25;18.60;;;4.30;;
9304;SDS011;4690;52.422;13.486;2023-02-01T04:05:53;14.57;;;4.30;;
9304;SDS011;4690;52.422;13.486;2023-02-01T04:08:20;16.80;;;4.23;;
9304;SDS011;4690;52.422;13.486;2023-02-01T04:10:46;15.07;;;4.30;;
9304;SDS011;4690;52.422;13.486;2023-02-01T04:13:12;19.90;;;4.53;;
9304;SDS011;4690;52.422;13.486;2023-02-01T04:15:38;17.17;;;4.43;;
9304;SDS011;4690;52.422;13.486;2023-02-01T04:18:04;17.00;;;5.00;;
9304;SDS011;4690;52.422;13.486;2023-02-01T04:20:30;23.20;;;4.87;;
9304;SDS011;4690;52.422;13.486;2023-02-01T04:22:57;16.93;;;4.30;;
9304;SDS011;4690;52.422;13.486;2023-02-01T04:25:23;20.07;;;4.70;;
9304;SDS011;4690;52.422;13.486;2023-02-01T04:27:49;17.40;;;4.70;;
9304;SDS011;4690;52.422;13.486;2023-02-01T04:30:15;19.37;;;5.03;;
9304;SDS011;4690;52.422;13.486;2023-02-01T04:32:41;18.83;;;4.20;;
9304;SDS011;4690;52.422;13.486;2023-02-01T04:35:07;15.73;;;4.30;;
9304;SDS011;4690;52.422;13.486;2023-02-01T04:37:36;17.13;;;4.80;;
9304;SDS011;4690;52.422;13.486;2023-02-01T04:40:02;19.23;;;4.83;;
9304;SDS011;4690;52.422;13.486;2023-02-01T04:42:28;19.73;;;5.00;;
9304;SDS011;4690;52.422;13.486;2023-02-01T04:44:54;16.83;;;4.20;;
9304;SDS011;4690;52.422;13.486;2023-02-01T04:47:20;22.53;;;4.90;;
9304;SDS011;4690;52.422;13.486;2023-02-01T04:49:46;14.13;;;4.07;;
9304;SDS011;4690;52.422;13.486;2023-02-01T04:52:12;19.27;;;5.07;;
9304;SDS011;4690;52.422;13.486;2023-02-01T04:54:37;20.23;;;4.60;;
9304;SDS011;4690;52.422;13.486;2023-02-01T04:57:03;18.33;;;4.97;;
9304;SDS011;4690;52.422;13.486;2023-02-01T04:59:29;16.57;;;4.20;;
9304;SDS011;4690;52.422;13.486;2023-02-01T05:01:55;14.17;;;4.30;;
9304;SDS011;4690;52.422;13.486;2023-02-01T05:04:20;19.50;;;4.47;;
9304;SDS011;4690;52.422;13.486;2023-02-01T05:06:46;16.57;;;4.13;;
9304;SDS011;4690;52.422;13.486;2023-02-01T05:09:12;16.00;;;4.90;;
9304;SDS011;4690;52.422;13.486;2023-02-01T05:11:37;20.77;;;4.47;;
9304;SDS011;4690;52.422;13.486;2023-02-01T05:14:22;19.73;;;4.70;;
9304;SDS011;4690;52.422;13.486;2023-02-01T05:16:47;18.67;;;4.70;;
9304;SDS011;4690;52.422;13.486;2023-02-01T05:19:13;18.07;;;4.30;;
9304;SDS011;4690;52.422;13.486;2023-02-01T05:21:39;15.43;;;4.50;;
9304;SDS011;4690;52.422;13.486;2023-02-01T05:24:05;18.67;;;4.87;;
9304;SDS011;4690;52.422;13.486;2023-02-01T05:26:38;16.03;;;4.07;;
9304;SDS011;4690;52.422;13.486;2023-02-01T05:29:08;18.17;;;5.37;;
9304;SDS011;4690;52.422;13.486;2023-02-01T05:31:35;16.07;;;4.90;;
9304;SDS011;4690;52.422;13.486;2023-02-01T05:34:01;22.60;;;5.00;;
9304;SDS011;4690;52.422;13.486;2023-02-01T05:36:27;15.80;;;4.53;;
9304;SDS011;4690;52.422;13.486;2023-02-01T05:38:53;12.60;;;4.07;;
9304;SDS011;4690;52.422;13.486;2023-02-01T05:41:19;15.07;;;4.30;;
9304;SDS011;4690;52.422;13.486;2023-02-01T05:43:44;20.20;;;4.83;;
9304;SDS011;4690;52.422;13.486;2023-02-01T05:46:10;21.30;;;4.60;;
9304;SDS011;4690;52.422;13.486;2023-02-01T05:48:37;19.53;;;4.80;;
9304;SDS011;4690;52.422;13.486;2023-02-01T05:51:04;17.97;;;5.07;;
9304;SDS011;4690;52.422;13.486;2023-02-01T05:53:31;15.13;;;4.40;;
9304;SDS011;4690;52.422;13.486;2023-02-01T05:55:57;17.43;;;4.60;;
9304;SDS011;4690;52.422;13.486;2023-02-01T05:58:22;19.73;;;4.70;;
9304;SDS011;4690;52.422;13.486;2023-02-01T06:00:48;18.17;;;4.60;;
9304;SDS011;4690;52.422;13.486;2023-02-01T06:03:14;14.40;;;4.30;;
9304;SDS011;4690;52.422;13.486;2023-02-01T06:05:40;15.33;;;4.50;;
9304;SDS011;4690;52.422;13.486;2023-02-01T06:08:09;22.70;;;4.73;;
9304;SDS011;4690;52.422;13.486;2023-02-01T06:10:34;16.67;;;4.67;;
9304;SDS011;4690;52.422;13.486;2023-02-01T06:13:00;18.67;;;4.63;;
9304;SDS011;4690;52.422;13.486;2023-02-01T06:15:28;18.27;;;4.43;;
9304;SDS011;4690;52.422;13.486;2023-02-01T06:17:54;17.63;;;4.23;;
9304;SDS011;4690;52.422;13.486;2023-02-01T06:20:20;20.50;;;4.83;;
9304;SDS011;4690;52.422;13.486;2023-02-01T06:22:46;20.47;;;4.80;;
9304;SDS011;4690;52.422;13.486;2023-02-01T06:25:12;20.77;;;5.00;;
9304;SDS011;4690;52.422;13.486;2023-02-01T06:27:38;16.63;;;4.77;;
9304;SDS011;4690;52.422;13.486;2023-02-01T06:30:05;17.87;;;4.43;;
9304;SDS011;4690;52.422;13.486;2023-02-01T06:32:31;19.20;;;4.67;;
9304;SDS011;4690;52.422;13.486;2023-02-01T06:34:58;21.63;;;4.57;;
9304;SDS011;4690;52.422;13.486;2023-02-01T06:37:25;16.13;;;4.70;;
9304;SDS011;4690;52.422;13.486;2023-02-01T06:39:52;17.80;;;4.67;;
9304;SDS011;4690;52.422;13.486;2023-02-01T06:42:18;17.77;;;4.83;;
9304;SDS011;4690;52.422;13.486;2023-02-01T06:44:44;17.03;;;4.70;;
9304;SDS011;4690;52.422;13.486;2023-02-01T06:47:09;21.33;;;5.20;;
9304;SDS011;4690;52.422;13.486;2023-02-01T06:49:35;15.70;;;4.67;;
9304;SDS011;4690;52.422;13.486;2023-02-01T06:52:01;18.90;;;5.40;;
9304;SDS011;4690;52.422;13.486;2023-02-01T06:54:27;17.37;;;4.27;;
9304;SDS011;4690;52.422;13.486;2023-02-01T06:56:53;13.80;;;4.53;;
9304;SDS011;4690;52.422;13.486;2023-02-01T06:59:19;21.73;;;5.00;;
9304;SDS011;4690;52.422;13.486;2023-02-01T07:01:45;19.67;;;5.10;;
9304;SDS011;4690;52.422;13.486;2023-02-01T07:04:11;14.80;;;4.90;;
9304;SDS011;4690;52.422;13.486;2023-02-01T07:06:38;17.57;;;4.87;;
9304;SDS011;4690;52.422;13.486;2023-02-01T07:09:05;18.97;;;4.97;;
9304;SDS011;4690;52.422;13.486;2023-02-01T07:11:32;17.03;;;5.17;;
9304;SDS011;4690;52.422;13.486;2023-02-01T07:13:59;19.90;;;5.07;;
9304;SDS011;4690;52.422;13.486;2023-02-01T07:16:24;16.70;;;5.20;;
9304;SDS011;4690;52.422;13.486;2023-02-01T07:18:51;14.37;;;4.57;;
9304;SDS011;4690;52.422;13.486;2023-02-01T07:21:18;18.10;;;4.63;;
9304;SDS011;4690;52.422;13.486;2023-02-01T07:23:44;16.77;;;4.83;;
9304;SDS011;4690;52.422;13.486;2023-02-01T07:26:12;18.57;;;5.03;;
9304;SDS011;4690;52.422;13.486;2023-02-01T07:28:39;16.37;;;5.20;;
9304;SDS011;4690;52.422;13.486;2023-02-01T07:31:16;17.83;;;4.67;;
9304;SDS011;4690;52.422;13.486;2023-02-01T07:33:45;16.80;;;4.93;;
9304;SDS011;4690;52.422;13.486;2023-02-01T07:36:14;14.40;;;5.07;;
9304;SDS011;4690;52.422;13.486;2023-02-01T07:38:42;14.63;;;4.30;;
9304;SDS011;4690;52.422;13.486;2023-02-01T07:41:08;19.70;;;4.87;;
9304;SDS011;4690;52.422;13.486;2023-02-01T07:43:35;16.27;;;5.07;;
9304;SDS011;4690;52.422;13.486;2023-02-01T07:46:02;16.40;;;4.30;;
9304;SDS011;4690;52.422;13.486;2023-02-01T07:48:30;15.77;;;4.47;;
9304;SDS011;4690;52.422;13.486;2023-02-01T07:51:05;15.97;;;4.70;;
9304;SDS011;4690;52.422;13.486;2023-02-01T07:53:37;16.37;;;5.13;;
9304;SDS011;4690;52.422;13.486;2023-02-01T07:56:08;13.83;;;4.70;;
9304;SDS011;4690;52.422;13.486;2023-02-01T07:58:40;18.27;;;5.10;;
9304;SDS011;4690;52.422;13.486;2023-02-01T08:01:19;18.67;;;5.70;;
9304;SDS011;4690;52.422;13.486;2023-02-01T08:03:51;15.27;;;5.13;;
9304;SDS011;4690;52.422;13.486;2023-02-01T08:06:21;16.73;;;5.60;;
9304;SDS011;4690;52.422;13.486;2023-02-01T08:08:49;17.53;;;5.03;;
9304;SDS011;4690;52.422;13.486;2023-02-01T08:11:16;18.97;;;5.27;;
9304;SDS011;4690;52.422;13.486;2023-02-01T08:13:43;22.23;;;5.60;;
9304;SDS011;4690;52.422;13.486;2023-02-01T08:16:10;14.23;;;4.60;;
9304;SDS011;4690;52.422;13.486;2023-02-01T08:18:40;19.37;;;5.50;;
9304;SDS011;4690;52.422;13.486;2023-02-01T08:21:07;16.53;;;4.70;;
9304;SDS011;4690;52.422;13.486;2023-02-01T08:23:43;16.93;;;5.27;;
9304;SDS011;4690;52.422;13.486;2023-02-01T08:26:17;19.53;;;5.37;;
9304;SDS011;4690;52.422;13.486;2023-02-01T08:28:53;18.70;;;5.73;;
9304;SDS011;4690;52.422;13.486;2023-02-01T08:31:25;15.83;;;5.67;;
9304;SDS011;4690;52.422;13.486;2023-02-01T08:33:54;13.07;;;5.30;;
9304;SDS011;4690;52.422;13.486;2023-02-01T08:36:27;17.73;;;5.70;;
9304;SDS011;4690;52.422;13.486;2023-02-01T08:38:55;13.37;;;5.27;;
9304;SDS011;4690;52.422;13.486;2023-02-01T08:41:23;15.33;;;6.30;;
9304;SDS011;4690;52.422;13.486;2023-02-01T08:43:51;20.70;;;5.57;;
9304;SDS011;4690;52.422;13.486;2023-02-01T08:46:19;21.27;;;5.87;;
9304;SDS011;4690;52.422;13.486;2023-02-01T08:48:45;17.57;;;6.03;;
9304;SDS011;4690;52.422;13.486;2023-02-01T08:51:13;18.63;;;6.10;;
9304;SDS011;4690;52.422;13.486;2023-02-01T08:53:41;19.77;;;6.30;;
9304;SDS011;4690;52.422;13.486;2023-02-01T08:56:08;17.83;;;6.30;;
9304;SDS011;4690;52.422;13.486;2023-02-01T08:58:36;13.97;;;5.63;;
9304;SDS011;4690;52.422;13.486;2023-02-01T09:01:11;14.90;;;5.53;;
9304;SDS011;4690;52.422;13.486;2023-02-01T09:03:41;16.87;;;5.87;;
9304;SDS011;4690;52.422;13.486;2023-02-01T09:06:08;10.30;;;5.03;;
9304;SDS011;4690;52.422;13.486;2023-02-01T09:08:38;15.23;;;4.77;;
9304;SDS011;4690;52.422;13.486;2023-02-01T09:11:06;12.03;;;4.60;;
9304;SDS011;4690;52.422;13.486;2023-02-01T09:13:37;9.47;;;3.77;;
9304;SDS011;4690;52.422;13.486;2023-02-01T09:16:03;9.93;;;3.80;;
9304;SDS011;4690;52.422;13.486;2023-02-01T09:18:29;10.37;;;3.63;;
9304;SDS011;4690;52.422;13.486;2023-02-01T09:20:55;7.53;;;3.13;;
9304;SDS011;4690;52.422;13.486;2023-02-01T09:23:21;7.67;;;3.20;;
9304;SDS011;4690;52.422;13.486;2023-02-01T09:25:47;7.17;;;2.90;;
9304;SDS011;4690;52.422;13.486;2023-02-01T09:28:15;5.90;;;3.10;;
9304;SDS011;4690;52.422;13.486;2023-02-01T09:30:41;12.67;;;3.10;;
9304;SDS011;4690;52.422;13.486;2023-02-01T09:33:07;5.97;;;2.90;;
9304;SDS011;4690;52.422;13.486;2023-02-01T09:35:34;4.53;;;2.80;;
9304;SDS011;4690;52.422;13.486;2023-02-01T09:38:00;5.57;;;2.63;;
9304;SDS011;4690;52.422;13.486;2023-02-01T09:40:26;6.00;;;2.93;;
9304;SDS011;4690;52.422;13.486;2023-02-01T09:43:01;6.53;;;2.80;;
9304;SDS011;4690;52.422;13.486;2023-02-01T09:45:40;5.87;;;2.70;;
9304;SDS011;4690;52.422;13.486;2023-02-01T09:48:32;4.93;;;2.80;;
9304;SDS011;4690;52.422;13.486;2023-02-01T09:51:05;5.10;;;2.57;;
9304;SDS011;4690;52.422;13.486;2023-02-01T09:53:41;6.27;;;2.77;;
9304;SDS011;4690;52.422;13.486;2023-02-01T09:56:27;6.97;;;2.80;;
9304;SDS011;4690;52.422;13.486;2023-02-01T09:59:13;8.07;;;2.73;;
9304;SDS011;4690;52.422;13.486;2023-02-01T10:02:03;8.30;;;3.10;;
9304;SDS011;4690;52.422;13.486;2023-02-01T10:04:38;8.07;;;2.90;;
9304;SDS011;4690;52.422;13.486;2023-02-01T10:10:09;5.53;;;3.10;;
9304;SDS011;4690;52.422;13.486;2023-02-01T10:12:52;6.93;;;2.60;;
9304;SDS011;4690;52.422;13.486;2023-02-01T10:27:14;6.77;;;2.73;;
9304;SDS011;4690;52.422;13.486;2023-02-01T10:29:48;7.40;;;2.80;;
9304;SDS011;4690;52.422;13.486;2023-02-01T10:32:24;4.87;;;2.77;;
9304;SDS011;4690;52.422;13.486;2023-02-01T10:34:58;8.43;;;3.20;;
9304;SDS011;4690;52.422;13.486;2023-02-01T10:37:40;5.57;;;2.63;;
9304;SDS011;4690;52.422;13.486;2023-02-01T10:40:19;8.63;;;2.57;;
9304;SDS011;4690;52.422;13.486;2023-02-01T10:42:57;7.43;;;2.77;;
9304;SDS011;4690;52.422;13.486;2023-02-01T10:45:30;7.40;;;2.63;;
9304;SDS011;4690;52.422;13.486;2023-02-01T10:47:58;6.23;;;2.30;;
9304;SDS011;4690;52.422;13.486;2023-02-01T10:53:18;5.13;;;2.33;;
9304;SDS011;4690;52.422;13.486;2023-02-01T10:56:12;5.10;;;2.20;;
9304;SDS011;4690;52.422;13.486;2023-02-01T10:58:45;10.10;;;2.40;;
9304;SDS011;4690;52.422;13.486;2023-02-01T11:01:23;6.70;;;2.10;;
9304;SDS011;4690;52.422;13.486;2023-02-01T11:04:10;7.27;;;2.77;;
9304;SDS011;4690;52.422;13.486;2023-02-01T11:06:43;10.00;;;2.20;;
9304;SDS011;4690;52.422;13.486;2023-02-01T11:09:19;7.50;;;2.50;;
9304;SDS011;4690;52.422;13.486;2023-02-01T11:16:46;9.23;;;2.93;;
9304;SDS011;4690;52.422;13.486;2023-02-01T11:19:15;13.77;;;3.23;;
9304;SDS011;4690;52.422;13.486;2023-02-01T11:21:42;7.83;;;2.90;;
9304;SDS011;4690;52.422;13.486;2023-02-01T11:24:18;11.77;;;3.07;;
9304;SDS011;4690;52.422;13.486;2023-02-01T11:26:50;9.67;;;2.80;;
9304;SDS011;4690;52.422;13.486;2023-02-01T11:29:20;8.90;;;3.23;;
9304;SDS011;4690;52.422;13.486;2023-02-01T11:31:54;10.30;;;3.53;;
9304;SDS011;4690;52.422;13.486;2023-02-01T11:34:33;7.73;;;3.57;;
9304;SDS011;4690;52.422;13.486;2023-02-01T11:37:26;12.13;;;3.53;;
9304;SDS011;4690;52.422;13.486;2023-02-01T11:39:57;10.20;;;3.53;;
9304;SDS011;4690;52.422;13.486;2023-02-01T11:42:56;13.20;;;4.07;;
9304;SDS011;4690;52.422;13.486;2023-02-01T11:45:26;16.63;;;5.03;;
9304;SDS011;4690;52.422;13.486;2023-02-01T11:47:58;13.33;;;4.00;;
9304;SDS011;4690;52.422;13.486;2023-02-01T11:50:28;11.13;;;3.10;;
9304;SDS011;4690;52.422;13.486;2023-02-01T11:56:19;8.77;;;3.13;;
9304;SDS011;4690;52.422;13.486;2023-02-01T11:59:04;9.77;;;3.33;;
9304;SDS011;4690;52.422;13.486;2023-02-01T12:04:43;8.97;;;3.93;;
9304;SDS011;4690;52.422;13.486;2023-02-01T12:13:13;11.90;;;4.07;;
9304;SDS011;4690;52.422;13.486;2023-02-01T12:19:17;8.43;;;2.97;;
9304;SDS011;4690;52.422;13.486;2023-02-01T12:28:16;13.03;;;3.13;;
9304;SDS011;4690;52.422;13.486;2023-02-01T12:31:50;13.87;;;4.00;;
9304;SDS011;4690;52.422;13.486;2023-02-01T12:37:19;9.70;;;4.10;;
9304;SDS011;4690;52.422;13.486;2023-02-01T12:45:51;7.90;;;3.20;;
9304;SDS011;4690;52.422;13.486;2023-02-01T12:51:05;9.20;;;2.90;;
9304;SDS011;4690;52.422;13.486;2023-02-01T12:53:50;9.63;;;3.10;;
9304;SDS011;4690;52.422;13.486;2023-02-01T12:56:43;11.07;;;3.20;;
9304;SDS011;4690;52.422;13.486;2023-02-01T12:59:38;10.40;;;3.07;;
9304;SDS011;4690;52.422;13.486;2023-02-01T13:05:20;11.57;;;5.77;;
9304;SDS011;4690;52.422;13.486;2023-02-01T13:10:47;7.20;;;3.10;;
9304;SDS011;4690;52.422;13.486;2023-02-01T13:16:17;7.13;;;2.50;;
9304;SDS011;4690;52.422;13.486;2023-02-01T13:19:20;8.77;;;2.50;;
9304;SDS011;4690;52.422;13.486;2023-02-01T13:22:03;6.80;;;2.47;;
9304;SDS011;4690;52.422;13.486;2023-02-01T13:27:15;10.90;;;4.80;;
9304;SDS011;4690;52.422;13.486;2023-02-01T13:29:50;9.07;;;2.70;;
9304;SDS011;4690;52.422;13.486;2023-02-01T13:38:46;6.77;;;2.90;;
9304;SDS011;4690;52.422;13.486;2023-02-01T13:41:59;8.37;;;2.83;;
9304;SDS011;4690;52.422;13.486;2023-02-01T13:44:57;11.90;;;3.30;;
9304;SDS011;4690;52.422;13.486;2023-02-01T13:47:33;8.43;;;3.50;;
9304;SDS011;4690;52.422;13.486;2023-02-01T13:52:56;8.43;;;2.70;;
9304;SDS011;4690;52.422;13.486;2023-02-01T14:01:36;10.13;;;3.10;;
9304;SDS011;4690;52.422;13.486;2023-02-01T14:03:56;8.47;;;2.80;;
9304;SDS011;4690;52.422;13.486;2023-02-01T14:11:52;10.00;;;3.03;;
9304;SDS011;4690;52.422;13.486;2023-02-01T14:19:26;9.93;;;3.20;;
9304;SDS011;4690;52.422;13.486;2023-02-01T14:22:00;8.13;;;2.93;;
9304;SDS011;4690;52.422;13.486;2023-02-01T14:24:49;11.27;;;3.47;;
9304;SDS011;4690;52.422;13.486;2023-02-01T14:27:21;11.20;;;3.30;;
9304;SDS011;4690;52.422;13.486;2023-02-01T14:29:58;10.67;;;3.57;;
9304;SDS011;4690;52.422;13.486;2023-02-01T14:32:38;8.83;;;3.30;;
9304;SDS011;4690;52.422;13.486;2023-02-01T14:35:18;9.87;;;3.67;;
9304;SDS011;4690;52.422;13.486;2023-02-01T14:37:51;8.63;;;3.17;;
9304;SDS011;4690;52.422;13.486;2023-02-01T14:40:26;17.57;;;3.63;;
9304;SDS011;4690;52.422;13.486;2023-02-01T14:42:53;10.40;;;3.60;;
9304;SDS011;4690;52.422;13.486;2023-02-01T14:47:47;11.93;;;3.53;;
9304;SDS011;4690;52.422;13.486;2023-02-01T14:50:40;13.10;;;3.10;;
9304;SDS011;4690;52.422;13.486;2023-02-01T14:55:42;10.70;;;3.33;;
9304;SDS011;4690;52.422;13.486;2023-02-01T15:01:32;9.87;;;3.00;;
9304;SDS011;4690;52.422;13.486;2023-02-01T15:04:04;9.50;;;3.40;;
9304;SDS011;4690;52.422;13.486;2023-02-01T15:09:17;13.77;;;4.80;;
9304;SDS011;4690;52.422;13.486;2023-02-01T15:14:46;9.13;;;3.83;;
9304;SDS011;4690;52.422;13.486;2023-02-01T15:17:29;9.97;;;3.50;;
9304;SDS011;4690;52.422;13.486;2023-02-01T15:20:00;11.20;;;4.10;;
9304;SDS011;4690;52.422;13.486;2023-02-01T15:22:58;10.43;;;3.40;;
9304;SDS011;4690;52.422;13.486;2023-02-01T15:25:27;7.93;;;3.03;;
9304;SDS011;4690;52.422;13.486;2023-02-01T15:27:56;9.20;;;3.50;;
9304;SDS011;4690;52.422;13.486;2023-02-01T15:30:23;6.23;;;2.33;;
9304;SDS011;4690;52.422;13.486;2023-02-01T15:41:08;7.53;;;2.80;;
9304;SDS011;4690;52.422;13.486;2023-02-01T15:44:02;8.60;;;2.83;;
9304;SDS011;4690;52.422;13.486;2023-02-01T15:46:48;9.43;;;3.10;;
9304;SDS011;4690;52.422;13.486;2023-02-01T15:51:58;6.80;;;2.90;;
9304;SDS011;4690;52.422;13.486;2023-02-01T15:54:28;8.77;;;3.50;;
9304;SDS011;4690;52.422;13.486;2023-02-01T15:57:09;6.70;;;3.90;;
9304;SDS011;4690;52.422;13.486;2023-02-01T15:59:41;11.60;;;3.90;;
9304;SDS011;4690;52.422;13.486;2023-02-01T16:05:03;9.67;;;3.27;;
9304;SDS011;4690;52.422;13.486;2023-02-01T16:08:11;7.60;;;3.93;;
9304;SDS011;4690;52.422;13.486;2023-02-01T16:10:45;4.07;;;2.80;;
9304;SDS011;4690;52.422;13.486;2023-02-01T16:13:14;6.33;;;3.00;;
9304;SDS011;4690;52.422;13.486;2023-02-01T16:15:41;3.90;;;2.67;;
9304;SDS011;4690;52.422;13.486;2023-02-01T16:18:08;5.67;;;2.93;;
9304;SDS011;4690;52.422;13.486;2023-02-01T16:20:36;3.10;;;2.80;;
9304;SDS011;4690;52.422;13.486;2023-02-01T16:23:04;6.63;;;3.20;;
9304;SDS011;4690;52.422;13.486;2023-02-01T16:25:31;3.20;;;2.30;;
9304;SDS011;4690;52.422;13.486;2023-02-01T16:27:57;4.03;;;1.80;;
9304;SDS011;4690;52.422;13.486;2023-02-01T16:30:23;4.67;;;1.87;;
9304;SDS011;4690;52.422;13.486;2023-02-01T16:32:56;2.10;;;1.90;;
9304;SDS011;4690;52.422;13.486;2023-02-01T16:35:26;3.00;;;1.90;;
9304;SDS011;4690;52.422;13.486;2023-02-01T16:38:00;2.90;;;1.60;;
9304;SDS011;4690;52.422;13.486;2023-02-01T16:40:37;1.97;;;1.77;;
9304;SDS011;4690;52.422;13.486;2023-02-01T16:43:14;4.50;;;3.87;;
9304;SDS011;4690;52.422;13.486;2023-02-01T16:45:43;2.90;;;1.70;;
9304;SDS011;4690;52.422;13.486;2023-02-01T16:48:35;2.47;;;2.27;;
9304;SDS011;4690;52.422;13.486;2023-02-01T16:51:08;1.40;;;1.30;;
9304;SDS011;4690;52.422;13.486;2023-02-01T16:53:38;2.87;;;1.50;;
9304;SDS011;4690;52.422;13.486;2023-02-01T16:56:09;2.17;;;1.90;;
9304;SDS011;4690;52.422;13.486;2023-02-01T16:58:41;1.33;;;1.23;;
9304;SDS011;4690;52.422;13.486;2023-02-01T17:01:08;3.17;;;1.83;;
9304;SDS011;4690;52.422;13.486;2023-02-01T17:03:40;2.70;;;1.50;;
9304;SDS011;4690;52.422;13.486;2023-02-01T17:06:09;1.63;;;1.53;;
9304;SDS011;4690;52.422;13.486;2023-02-01T17:08:39;3.30;;;1.73;;
9304;SDS011;4690;52.422;13.486;2023-02-01T17:11:12;2.40;;;1.73;;
9304;SDS011;4690;52.422;13.486;2023-02-01T17:13:39;3.47;;;1.83;;
9304;SDS011;4690;52.422;13.486;2023-02-01T17:18:57;3.17;;;2.03;;
9304;SDS011;4690;52.422;13.486;2023-02-01T17:21:30;5.37;;;2.23;;
9304;SDS011;4690;52.422;13.486;2023-02-01T17:24:14;3.80;;;2.13;;
9304;SDS011;4690;52.422;13.486;2023-02-01T17:26:44;5.13;;;2.90;;
9304;SDS011;4690;52.422;13.486;2023-02-01T17:29:10;6.37;;;3.13;;
9304;SDS011;4690;52.422;13.486;2023-02-01T17:31:38;14.27;;;3.00;;
9304;SDS011;4690;52.422;13.486;2023-02-01T17:34:08;8.13;;;2.60;;
9304;SDS011;4690;52.422;13.486;2023-02-01T17:36:36;5.30;;;2.63;;
9304;SDS011;4690;52.422;13.486;2023-02-01T17:39:03;6.50;;;2.90;;
9304;SDS011;4690;52.422;13.486;2023-02-01T17:41:30;6.17;;;3.03;;
9304;SDS011;4690;52.422;13.486;2023-02-01T17:43:55;6.10;;;3.07;;
9304;SDS011;4690;52.422;13.486;2023-02-01T17:46:21;11.33;;;2.73;;
9304;SDS011;4690;52.422;13.486;2023-02-01T17:48:51;6.30;;;2.40;;
9304;SDS011;4690;52.422;13.486;2023-02-01T17:51:19;5.77;;;2.50;;
9304;SDS011;4690;52.422;13.486;2023-02-01T17:53:52;9.47;;;2.93;;
9304;SDS011;4690;52.422;13.486;2023-02-01T17:56:19;10.67;;;3.00;;
9304;SDS011;4690;52.422;13.486;2023-02-01T17:58:48;7.53;;;3.03;;
9304;SDS011;4690;52.422;13.486;2023-02-01T18:01:16;11.63;;;2.83;;
9304;SDS011;4690;52.422;13.486;2023-02-01T18:03:45;9.13;;;2.50;;